createdAt,value
2018-11-01T00:00:23.173Z,1014.33
2018-11-01T00:01:22.697Z,1014.25
2018-11-01T00:02:23.302Z,1014.29
2018-11-01T00:03:22.707Z,1014.23
2018-11-01T00:04:23.078Z,1014.25
2018-11-01T00:05:23.411Z,1014.30
2018-11-01T00:06:22.514Z,1014.27
2018-11-01T00:07:22.853Z,1014.23
2018-11-01T00:08:23.400Z,1014.18
2018-11-01T00:09:22.889Z,1014.17
2018-11-01T00:10:23.210Z,1014.21
2018-11-01T00:11:22.778Z,1014.18
2018-11-01T00:12:44.257Z,1014.17
2018-11-01T00:14:05.570Z,1014.20
2018-11-01T00:15:06.109Z,1014.21
2018-11-01T00:16:05.549Z,1014.21
2018-11-01T00:17:06.098Z,1014.22
2018-11-01T00:18:06.300Z,1014.23
2018-11-01T00:19:05.715Z,1014.20
2018-11-01T00:20:06.176Z,1014.23
2018-11-01T00:21:06.344Z,1014.23
2018-11-01T00:22:05.869Z,1014.23
2018-11-01T00:23:06.059Z,1014.15
2018-11-01T00:24:06.609Z,1014.21
2018-11-01T00:25:06.107Z,1014.19
2018-11-01T00:26:05.601Z,1014.16
2018-11-01T00:27:06.112Z,1014.16
2018-11-01T00:28:05.566Z,1014.13
2018-11-01T00:29:05.969Z,1014.12
2018-11-01T00:30:06.258Z,1014.13
2018-11-01T00:31:05.471Z,1014.12
2018-11-01T00:32:05.894Z,1014.13
2018-11-01T00:33:06.483Z,1014.15
2018-11-01T00:34:26.933Z,1014.14
2018-11-01T00:35:27.156Z,1014.11
2018-11-01T00:36:48.574Z,1014.14
2018-11-01T00:37:48.866Z,1014.17
2018-11-01T00:38:49.376Z,1014.16
2018-11-01T00:39:48.839Z,1014.21
2018-11-01T00:40:49.312Z,1014.19
2018-11-01T00:41:48.606Z,1014.19
2018-11-01T00:42:48.942Z,1014.17
2018-11-01T00:43:49.581Z,1014.17
2018-11-01T00:44:49.018Z,1014.17
2018-11-01T00:45:49.356Z,1014.18
2018-11-01T00:46:48.724Z,1014.18
2018-11-01T00:47:48.996Z,1014.21
2018-11-01T00:48:49.416Z,1014.19
2018-11-01T00:49:49.372Z,1014.20
2018-11-01T00:50:48.885Z,1014.19
2018-11-01T00:51:49.241Z,1014.17
2018-11-01T00:52:48.551Z,1014.20
2018-11-01T00:53:49.047Z,1014.16
2018-11-01T00:54:48.478Z,1014.19
2018-11-01T00:55:48.798Z,1014.20
2018-11-01T00:56:49.188Z,1014.16
2018-11-01T00:57:48.570Z,1014.17
2018-11-01T00:58:49.025Z,1014.19
2018-11-01T00:59:49.294Z,1014.21
2018-11-01T01:00:48.767Z,1014.21
2018-11-01T01:01:49.264Z,1014.18
2018-11-01T01:02:48.673Z,1014.19
2018-11-01T01:03:49.136Z,1014.20
2018-11-01T01:04:48.425Z,1014.22
2018-11-01T01:05:48.924Z,1014.20
2018-11-01T01:06:49.285Z,1014.27
2018-11-01T01:07:48.494Z,1014.24
2018-11-01T01:08:49.021Z,1014.21
2018-11-01T01:09:49.373Z,1014.26
2018-11-01T01:11:11.616Z,1014.20
2018-11-01T01:12:11.771Z,1014.17
2018-11-01T01:13:12.159Z,1014.14
2018-11-01T01:14:11.651Z,1014.13
2018-11-01T01:15:11.964Z,1014.15
2018-11-01T01:16:12.391Z,1014.14
2018-11-01T01:17:11.817Z,1014.05
2018-11-01T01:18:12.470Z,1014.11
2018-11-01T01:19:11.883Z,1014.09
2018-11-01T01:20:12.405Z,1014.04
2018-11-01T01:21:32.948Z,1013.98
2018-11-01T01:22:33.430Z,1013.96
2018-11-01T01:23:33.823Z,1013.95
2018-11-01T01:24:33.321Z,1013.88
2018-11-01T01:25:54.909Z,1013.89
2018-11-01T01:26:55.346Z,1013.87
2018-11-01T01:27:55.851Z,1013.84
2018-11-01T01:28:55.049Z,1013.80
2018-11-01T01:30:16.786Z,1013.77
2018-11-01T01:31:17.035Z,1013.78
2018-11-01T01:32:17.572Z,1013.74
2018-11-01T01:33:17.100Z,1013.71
2018-11-01T01:34:17.369Z,1013.72
2018-11-01T01:35:16.801Z,1013.77
2018-11-01T01:36:17.110Z,1013.81
2018-11-01T01:37:39.589Z,1013.73
2018-11-01T01:38:39.954Z,1013.71
2018-11-01T01:40:03.284Z,1013.68
2018-11-01T01:41:03.690Z,1013.67
2018-11-01T01:42:04.176Z,1013.63
2018-11-01T01:43:03.340Z,1013.70
2018-11-01T01:44:03.734Z,1013.71
2018-11-01T01:45:03.940Z,1013.75
2018-11-01T01:46:04.139Z,1013.71
2018-11-01T01:47:03.450Z,1013.70
2018-11-01T01:48:03.994Z,1013.69
2018-11-01T01:49:03.450Z,1013.64
2018-11-01T01:50:27.048Z,1013.63
2018-11-01T01:51:27.627Z,1013.63
2018-11-01T01:52:47.966Z,1013.62
2018-11-01T01:53:48.381Z,1013.60
2018-11-01T01:54:48.924Z,1013.58
2018-11-01T01:55:48.227Z,1013.62
2018-11-01T01:56:48.618Z,1013.61
2018-11-01T01:57:48.878Z,1013.62
2018-11-01T01:59:30.614Z,1013.58
2018-11-01T02:00:30.842Z,1013.59
2018-11-01T02:01:31.357Z,1013.54
2018-11-01T02:03:14.205Z,1013.54
2018-11-01T02:04:14.578Z,1013.52
2018-11-01T02:05:35.920Z,1013.53
2018-11-01T02:06:36.264Z,1013.52
2018-11-01T02:07:36.399Z,1013.50
2018-11-01T02:08:36.666Z,1013.55
2018-11-01T02:09:35.953Z,1013.46
2018-11-01T02:10:36.338Z,1013.50
2018-11-01T02:11:57.894Z,1013.45
2018-11-01T02:12:58.505Z,1013.44
2018-11-01T02:13:57.914Z,1013.40
2018-11-01T02:14:58.114Z,1013.42
2018-11-01T02:15:58.514Z,1013.37
2018-11-01T02:17:19.878Z,1013.35
2018-11-01T02:18:41.261Z,1013.31
2018-11-01T02:19:41.687Z,1013.35
2018-11-01T02:21:03.050Z,1013.30
2018-11-01T02:22:03.315Z,1013.26
2018-11-01T02:23:03.652Z,1013.24
2018-11-01T02:24:03.182Z,1013.19
2018-11-01T02:25:03.748Z,1013.19
2018-11-01T02:26:03.198Z,1013.20
2018-11-01T02:27:03.599Z,1013.20
2018-11-01T02:28:03.800Z,1013.25
2018-11-01T02:29:03.221Z,1013.30
2018-11-01T02:30:03.738Z,1013.28
2018-11-01T02:31:04.025Z,1013.28
2018-11-01T02:32:45.727Z,1013.18
2018-11-01T02:33:46.103Z,1013.14
2018-11-01T02:35:07.380Z,1013.10
2018-11-01T02:36:07.816Z,1013.11
2018-11-01T02:37:08.202Z,1013.04
2018-11-01T02:38:28.960Z,1013.08
2018-11-01T02:39:29.378Z,1013.09
2018-11-01T02:40:29.844Z,1013.08
2018-11-01T02:41:29.182Z,1013.06
2018-11-01T02:42:29.641Z,1013.03
2018-11-01T02:43:28.887Z,1013.03
2018-11-01T02:44:29.072Z,1013.02
2018-11-01T02:45:29.129Z,1012.99
2018-11-01T02:46:29.300Z,1013.01
2018-11-01T02:47:29.731Z,1013.01
2018-11-01T02:48:28.948Z,1013.02
2018-11-01T02:49:29.127Z,1013.06
2018-11-01T02:50:29.426Z,1013.08
2018-11-01T02:51:28.851Z,1013.08
2018-11-01T02:52:29.253Z,1013.11
2018-11-01T02:53:28.651Z,1013.10
2018-11-01T02:54:29.086Z,1013.17
2018-11-01T02:55:29.415Z,1013.13
2018-11-01T02:56:50.749Z,1013.14
2018-11-01T02:57:51.045Z,1013.09
2018-11-01T02:58:51.341Z,1013.11
2018-11-01T03:00:14.681Z,1013.06
2018-11-01T03:01:36.206Z,1012.99
2018-11-01T03:02:36.465Z,1012.98
2018-11-01T03:03:36.913Z,1012.99
2018-11-01T03:04:36.318Z,1012.95
2018-11-01T03:05:57.951Z,1012.92
2018-11-01T03:06:58.240Z,1012.94
2018-11-01T03:07:58.740Z,1012.90
2018-11-01T03:08:58.080Z,1012.92
2018-11-01T03:09:58.571Z,1012.88
2018-11-01T03:10:57.918Z,1012.90
2018-11-01T03:11:58.118Z,1012.91
2018-11-01T03:12:58.320Z,1012.87
2018-11-01T03:13:57.814Z,1012.89
2018-11-01T03:14:58.838Z,1012.91
2018-11-01T03:15:57.984Z,1012.90
2018-11-01T03:16:58.479Z,1012.93
2018-11-01T03:17:57.797Z,1012.92
2018-11-01T03:18:58.104Z,1012.95
2018-11-01T03:19:58.623Z,1012.87
2018-11-01T03:21:19.449Z,1012.90
2018-11-01T03:22:19.835Z,1012.93
2018-11-01T03:23:20.251Z,1012.91
2018-11-01T03:24:19.591Z,1012.94
2018-11-01T03:25:19.914Z,1012.95
2018-11-01T03:26:20.328Z,1012.92
2018-11-01T03:27:19.919Z,1012.90
2018-11-01T03:28:20.159Z,1012.87
2018-11-01T03:29:19.496Z,1012.83
2018-11-01T03:30:19.828Z,1012.86
2018-11-01T03:31:41.417Z,1012.87
2018-11-01T03:32:42.036Z,1012.84
2018-11-01T03:33:42.298Z,1012.87
2018-11-01T03:35:02.794Z,1012.84
2018-11-01T03:36:03.264Z,1012.83
2018-11-01T03:37:02.821Z,1012.80
2018-11-01T03:38:03.360Z,1012.80
2018-11-01T03:39:02.987Z,1012.76
2018-11-01T03:40:24.627Z,1012.74
2018-11-01T03:41:24.930Z,1012.67
2018-11-01T03:42:25.243Z,1012.67
2018-11-01T03:43:25.511Z,1012.69
2018-11-01T03:44:24.987Z,1012.67
2018-11-01T03:45:25.358Z,1012.66
2018-11-01T03:46:24.572Z,1012.67
2018-11-01T03:47:24.808Z,1012.69
2018-11-01T03:48:25.451Z,1012.62
2018-11-01T03:49:24.979Z,1012.60
2018-11-01T03:50:25.299Z,1012.59
2018-11-01T03:51:24.678Z,1012.60
2018-11-01T03:52:25.284Z,1012.54
2018-11-01T03:53:45.618Z,1012.59
2018-11-01T03:55:07.065Z,1012.54
2018-11-01T03:56:07.501Z,1012.55
2018-11-01T03:57:07.948Z,1012.57
2018-11-01T03:58:07.262Z,1012.55
2018-11-01T03:59:07.578Z,1012.50
2018-11-01T04:00:29.016Z,1012.56
2018-11-01T04:01:29.384Z,1012.54
2018-11-01T04:02:29.756Z,1012.53
2018-11-01T04:03:49.898Z,1012.51
2018-11-01T04:04:50.305Z,1012.49
2018-11-01T04:05:50.521Z,1012.48
2018-11-01T04:06:49.782Z,1012.46
2018-11-01T04:07:50.845Z,1012.44
2018-11-01T04:09:11.084Z,1012.52
2018-11-01T04:10:32.338Z,1012.54
2018-11-01T04:11:32.502Z,1012.52
2018-11-01T04:12:32.671Z,1012.55
2018-11-01T04:14:23.543Z,1012.55
2018-11-01T04:15:24.104Z,1012.56
2018-11-01T04:16:44.810Z,1012.58
2018-11-01T04:17:45.114Z,1012.60
2018-11-01T04:18:45.449Z,1012.62
2018-11-01T04:19:44.664Z,1012.60
2018-11-01T04:20:44.965Z,1012.60
2018-11-01T04:21:45.034Z,1012.61
2018-11-01T04:23:06.349Z,1012.57
2018-11-01T04:24:06.587Z,1012.60
2018-11-01T04:25:06.771Z,1012.58
2018-11-01T04:26:07.070Z,1012.57
2018-11-01T04:27:06.419Z,1012.51
2018-11-01T04:28:06.769Z,1012.54
2018-11-01T04:29:07.081Z,1012.57
2018-11-01T04:30:06.399Z,1012.56
2018-11-01T04:31:06.580Z,1012.53
2018-11-01T04:32:06.851Z,1012.52
2018-11-01T04:33:09.387Z,1012.50
2018-11-01T04:34:06.855Z,1012.44
2018-11-01T04:35:06.239Z,1012.46
2018-11-01T04:36:27.713Z,1012.42
2018-11-01T04:37:27.991Z,1012.38
2018-11-01T04:38:28.343Z,1012.40
2018-11-01T04:39:27.523Z,1012.41
2018-11-01T04:40:27.764Z,1012.36
2018-11-01T04:41:27.899Z,1012.37
2018-11-01T04:42:28.271Z,1012.31
2018-11-01T04:43:28.397Z,1012.33
2018-11-01T04:44:27.969Z,1012.32
2018-11-01T04:45:49.398Z,1012.32
2018-11-01T04:46:49.557Z,1012.32
2018-11-01T04:47:50.240Z,1012.31
2018-11-01T04:49:10.523Z,1012.30
2018-11-01T04:50:31.786Z,1012.35
2018-11-01T04:51:32.196Z,1012.27
2018-11-01T04:52:32.485Z,1012.32
2018-11-01T04:53:31.894Z,1012.26
2018-11-01T04:54:55.139Z,1012.23
2018-11-01T04:55:55.530Z,1012.27
2018-11-01T04:56:55.849Z,1012.25
2018-11-01T04:57:56.099Z,1012.26
2018-11-01T04:59:16.206Z,1012.21
2018-11-01T05:00:16.414Z,1012.20
2018-11-01T05:01:16.583Z,1012.17
2018-11-01T05:02:16.787Z,1012.18
2018-11-01T05:03:17.253Z,1012.18
2018-11-01T05:04:16.740Z,1012.10
2018-11-01T05:05:17.074Z,1012.08
2018-11-01T05:06:16.363Z,1012.02
2018-11-01T05:07:16.767Z,1011.99
2018-11-01T05:08:16.970Z,1011.94
2018-11-01T05:09:16.335Z,1011.94
2018-11-01T05:10:17.930Z,1011.90
2018-11-01T05:11:17.247Z,1011.92
2018-11-01T05:12:16.495Z,1011.90
2018-11-01T05:13:16.911Z,1011.97
2018-11-01T05:14:16.383Z,1011.93
2018-11-01T05:15:16.991Z,1011.95
2018-11-01T05:16:37.578Z,1011.95
2018-11-01T05:17:37.675Z,1012.00
2018-11-01T05:18:37.952Z,1011.94
2018-11-01T05:19:59.120Z,1011.96
2018-11-01T05:20:59.150Z,1011.97
2018-11-01T05:21:59.592Z,1012.01
2018-11-01T05:22:59.791Z,1012.05
2018-11-01T05:24:00.124Z,1012.03
2018-11-01T05:24:59.660Z,1012.04
2018-11-01T05:26:00.057Z,1012.01
2018-11-01T05:27:20.897Z,1011.99
2018-11-01T05:28:21.059Z,1012.00
2018-11-01T05:29:21.302Z,1011.98
2018-11-01T05:30:42.632Z,1012.00
2018-11-01T05:31:42.985Z,1012.02
2018-11-01T05:32:43.305Z,1012.02
2018-11-01T05:33:42.698Z,1012.00
2018-11-01T05:35:04.028Z,1012.00
2018-11-01T05:36:04.485Z,1012.04
2018-11-01T05:37:04.788Z,1012.04
2018-11-01T05:38:25.126Z,1011.98
2018-11-01T05:39:25.461Z,1011.99
2018-11-01T05:40:25.825Z,1012.04
2018-11-01T05:41:25.325Z,1011.94
2018-11-01T05:42:25.563Z,1011.95
2018-11-01T05:43:25.843Z,1011.98
2018-11-01T05:44:25.107Z,1011.95
2018-11-01T05:45:25.338Z,1011.93
2018-11-01T05:46:25.482Z,1011.96
2018-11-01T05:47:25.972Z,1011.92
2018-11-01T05:48:25.308Z,1011.93
2018-11-01T05:49:25.383Z,1011.92
2018-11-01T05:50:25.522Z,1011.93
2018-11-01T05:51:25.711Z,1011.85
2018-11-01T05:52:26.088Z,1011.86
2018-11-01T05:53:25.561Z,1011.85
2018-11-01T05:54:25.831Z,1011.78
2018-11-01T05:55:25.463Z,1011.82
2018-11-01T05:56:25.993Z,1011.83
2018-11-01T05:57:25.469Z,1011.84
2018-11-01T05:58:25.872Z,1011.82
2018-11-01T05:59:25.258Z,1011.76
2018-11-01T06:00:25.612Z,1011.75
2018-11-01T06:01:25.053Z,1011.72
2018-11-01T06:02:25.349Z,1011.73
2018-11-01T06:03:25.579Z,1011.75
2018-11-01T06:04:26.080Z,1011.76
2018-11-01T06:05:25.659Z,1011.83
2018-11-01T06:06:26.028Z,1011.79
2018-11-01T06:07:25.386Z,1011.81
2018-11-01T06:08:25.933Z,1011.75
2018-11-01T06:09:24.911Z,1011.74
2018-11-01T06:10:46.169Z,1011.78
2018-11-01T06:11:46.641Z,1011.76
2018-11-01T06:12:47.006Z,1011.78
2018-11-01T06:13:46.448Z,1011.79
2018-11-01T06:14:46.973Z,1011.81
2018-11-01T06:15:46.460Z,1011.82
2018-11-01T06:16:46.898Z,1011.86
2018-11-01T06:17:46.337Z,1011.80
2018-11-01T06:18:46.703Z,1011.85
2018-11-01T06:19:46.162Z,1011.84
2018-11-01T06:20:46.688Z,1011.83
2018-11-01T06:21:46.397Z,1011.80
2018-11-01T06:22:46.652Z,1011.77
2018-11-01T06:23:47.036Z,1011.77
2018-11-01T06:24:46.267Z,1011.79
2018-11-01T06:25:46.665Z,1011.78
2018-11-01T06:27:08.144Z,1011.79
2018-11-01T06:28:09.068Z,1011.80
2018-11-01T06:29:08.352Z,1011.78
2018-11-01T06:30:09.175Z,1011.77
2018-11-01T06:31:08.663Z,1011.73
2018-11-01T06:32:10.272Z,1011.75
2018-11-01T06:33:30.098Z,1011.74
2018-11-01T06:34:51.158Z,1011.74
2018-11-01T06:35:51.702Z,1011.76
2018-11-01T06:36:52.242Z,1011.76
2018-11-01T06:37:51.708Z,1011.77
2018-11-01T06:38:52.173Z,1011.82
2018-11-01T06:39:51.517Z,1011.80
2018-11-01T06:40:51.953Z,1011.81
2018-11-01T06:41:51.381Z,1011.80
2018-11-01T06:42:51.698Z,1011.87
2018-11-01T06:44:01.741Z,1011.87
2018-11-01T06:45:16.180Z,1011.95
2018-11-01T06:46:16.604Z,1011.97
2018-11-01T06:47:17.189Z,1011.99
2018-11-01T06:48:16.498Z,1012.06
2018-11-01T06:49:16.848Z,1012.09
2018-11-01T06:50:37.421Z,1012.13
2018-11-01T06:51:38.016Z,1012.10
2018-11-01T06:53:01.590Z,1012.07
2018-11-01T06:54:02.153Z,1012.12
2018-11-01T06:55:01.513Z,1012.13
2018-11-01T06:56:01.883Z,1012.21
2018-11-01T06:57:02.509Z,1012.21
2018-11-01T06:58:02.003Z,1012.25
2018-11-01T06:59:02.530Z,1012.27
2018-11-01T07:00:44.127Z,1012.26
2018-11-01T07:01:44.640Z,1012.26
2018-11-01T07:02:45.137Z,1012.25
2018-11-01T07:03:44.736Z,1012.25
2018-11-01T07:04:44.684Z,1012.32
2018-11-01T07:06:27.688Z,1012.36
2018-11-01T07:07:28.216Z,1012.40
2018-11-01T07:08:27.538Z,1012.41
2018-11-01T07:09:28.109Z,1012.38
2018-11-01T07:10:49.203Z,1012.48
2018-11-01T07:12:11.169Z,1012.45
2018-11-01T07:13:11.661Z,1012.45
2018-11-01T07:14:11.288Z,1012.40
2018-11-01T07:15:11.956Z,1012.40
2018-11-01T07:16:11.218Z,1012.39
2018-11-01T07:17:32.969Z,1012.39
2018-11-01T07:18:33.004Z,1012.43
2018-11-01T07:19:33.508Z,1012.35
2018-11-01T07:20:32.946Z,1012.31
2018-11-01T07:21:33.378Z,1012.30
2018-11-01T07:22:33.021Z,1012.29
2018-11-01T07:23:33.378Z,1012.30
2018-11-01T07:24:32.947Z,1012.29
2018-11-01T07:25:33.478Z,1012.28
2018-11-01T07:26:54.288Z,1012.26
2018-11-01T07:27:55.008Z,1012.26
2018-11-01T07:29:15.660Z,1012.22
2018-11-01T07:30:16.293Z,1012.17
2018-11-01T07:31:16.707Z,1012.17
2018-11-01T07:32:16.048Z,1012.17
2018-11-01T07:33:15.405Z,1012.18
2018-11-01T07:34:15.627Z,1012.19
2018-11-01T07:35:16.285Z,1012.16
2018-11-01T07:37:01.391Z,1012.21
2018-11-01T07:38:41.439Z,1012.22
2018-11-01T07:39:41.997Z,1012.18
2018-11-01T07:40:41.444Z,1012.12
2018-11-01T07:42:02.960Z,1012.11
2018-11-01T07:43:03.615Z,1012.09
2018-11-01T07:44:03.953Z,1012.06
2018-11-01T07:45:03.412Z,1012.07
2018-11-01T07:46:03.874Z,1012.08
2018-11-01T07:47:03.472Z,1012.00
2018-11-01T07:48:03.177Z,1012.00
2018-11-01T07:49:03.742Z,1011.91
2018-11-01T07:50:03.116Z,1011.89
2018-11-01T07:51:03.369Z,1011.85
2018-11-01T07:52:03.618Z,1011.87
2018-11-01T07:53:04.080Z,1011.85
2018-11-01T07:54:03.710Z,1011.86
2018-11-01T07:55:02.986Z,1011.83
2018-11-01T07:56:03.372Z,1011.86
2018-11-01T07:57:04.312Z,1011.83
2018-11-01T07:58:27.704Z,1011.81
2018-11-01T07:59:27.281Z,1011.80
2018-11-01T08:01:14.417Z,1011.82
2018-11-01T08:02:15.152Z,1011.77
2018-11-01T08:03:14.957Z,1011.78
2018-11-01T08:04:14.417Z,1011.72
2018-11-01T08:05:14.998Z,1011.72
2018-11-01T08:06:15.517Z,1011.72
2018-11-01T08:07:15.954Z,1011.68
2018-11-01T08:08:14.369Z,1011.70
2018-11-01T08:09:14.743Z,1011.67
2018-11-01T08:10:19.134Z,1011.68
2018-11-01T08:11:38.024Z,1011.64
2018-11-01T08:13:01.505Z,1011.63
2018-11-01T08:14:01.877Z,1011.59
2018-11-01T08:15:02.387Z,1011.63
2018-11-01T08:16:25.667Z,1011.64
2018-11-01T08:17:26.281Z,1011.63
2018-11-01T08:18:25.541Z,1011.70
2018-11-01T08:19:47.461Z,1011.70
2018-11-01T08:20:48.126Z,1011.64
2018-11-01T08:21:47.834Z,1011.70
2018-11-01T08:22:47.632Z,1011.62
2018-11-01T08:24:09.362Z,1011.62
2018-11-01T08:25:10.002Z,1011.60
2018-11-01T08:26:33.488Z,1011.64
2018-11-01T08:27:34.413Z,1011.64
2018-11-01T08:28:34.133Z,1011.64
2018-11-01T08:29:33.513Z,1011.61
2018-11-01T08:30:33.951Z,1011.59
2018-11-01T08:31:34.165Z,1011.58
2018-11-01T08:32:33.775Z,1011.54
2018-11-01T08:33:33.314Z,1011.53
2018-11-01T08:34:34.108Z,1011.51
2018-11-01T08:35:33.744Z,1011.53
2018-11-01T08:36:57.326Z,1011.53
2018-11-01T08:38:24.909Z,1011.47
2018-11-01T08:39:25.525Z,1011.47
2018-11-01T08:40:25.017Z,1011.48
2018-11-01T08:41:25.512Z,1011.47
2018-11-01T08:42:24.783Z,1011.41
2018-11-01T08:43:25.173Z,1011.41
2018-11-01T08:44:25.462Z,1011.41
2018-11-01T08:45:25.953Z,1011.36
2018-11-01T08:46:25.524Z,1011.37
2018-11-01T08:47:27.626Z,1011.35
2018-11-01T08:48:25.526Z,1011.33
2018-11-01T08:49:25.020Z,1011.29
2018-11-01T08:50:25.453Z,1011.30
2018-11-01T08:51:25.831Z,1011.29
2018-11-01T08:52:25.210Z,1011.33
2018-11-01T08:53:25.745Z,1011.33
2018-11-01T08:54:25.099Z,1011.36
2018-11-01T08:55:25.867Z,1011.33
2018-11-01T08:56:25.260Z,1011.30
2018-11-01T08:57:46.547Z,1011.28
2018-11-01T08:58:47.302Z,1011.27
2018-11-01T08:59:46.951Z,1011.29
2018-11-01T09:00:47.437Z,1011.32
2018-11-01T09:01:47.005Z,1011.30
2018-11-01T09:02:47.623Z,1011.33
2018-11-01T09:03:46.953Z,1011.32
2018-11-01T09:04:47.495Z,1011.35
2018-11-01T09:05:46.909Z,1011.33
2018-11-01T09:06:47.600Z,1011.27
2018-11-01T09:07:47.980Z,1011.27
2018-11-01T09:08:48.124Z,1011.28
2018-11-01T09:09:47.044Z,1011.24
2018-11-01T09:11:11.460Z,1011.21
2018-11-01T09:12:11.966Z,1011.23
2018-11-01T09:13:11.569Z,1011.28
2018-11-01T09:14:35.461Z,1011.33
2018-11-01T09:15:33.934Z,1011.37
2018-11-01T09:16:34.581Z,1011.41
2018-11-01T09:17:34.108Z,1011.30
2018-11-01T09:18:33.606Z,1011.35
2018-11-01T09:19:34.429Z,1011.33
2018-11-01T09:20:34.248Z,1011.26
2018-11-01T09:21:34.051Z,1011.29
2018-11-01T09:22:57.778Z,1011.28
2018-11-01T09:23:59.154Z,1011.23
2018-11-01T09:24:58.601Z,1011.25
2018-11-01T09:25:58.438Z,1011.25
2018-11-01T09:26:58.023Z,1011.22
2018-11-01T09:27:58.701Z,1011.19
2018-11-01T09:29:00.157Z,1011.22
2018-11-01T09:29:59.710Z,1011.25
2018-11-01T09:30:58.113Z,1011.24
2018-11-01T09:31:58.494Z,1011.23
2018-11-01T09:32:58.079Z,1011.24
2018-11-01T09:34:02.308Z,1011.31
2018-11-01T09:34:57.946Z,1011.31
2018-11-01T09:35:58.398Z,1011.30
2018-11-01T09:36:57.905Z,1011.33
2018-11-01T09:37:58.458Z,1011.38
2018-11-01T09:38:58.177Z,1011.39
2018-11-01T09:39:57.834Z,1011.38
2018-11-01T09:40:58.563Z,1011.40
2018-11-01T09:41:58.243Z,1011.43
2018-11-01T09:43:20.109Z,1011.41
2018-11-01T09:44:20.721Z,1011.21
2018-11-01T09:45:20.376Z,1011.42
2018-11-01T09:46:20.971Z,1011.48
2018-11-01T09:47:20.820Z,1011.48
2018-11-01T09:48:20.984Z,1011.45
2018-11-01T09:49:20.842Z,1011.42
2018-11-01T09:50:20.743Z,1011.38
2018-11-01T09:51:20.537Z,1011.35
2018-11-01T09:52:19.997Z,1011.35
2018-11-01T09:53:20.458Z,1011.31
2018-11-01T09:54:20.959Z,1011.25
2018-11-01T09:55:20.546Z,1011.28
2018-11-01T09:56:41.630Z,1011.27
2018-11-01T09:57:42.257Z,1011.23
2018-11-01T09:58:41.724Z,1011.22
2018-11-01T09:59:43.783Z,1011.23
2018-11-01T10:01:09.384Z,1011.16
2018-11-01T10:02:09.384Z,1011.14
2018-11-01T10:03:53.711Z,1011.13
2018-11-01T10:05:14.782Z,1011.09
2018-11-01T10:06:15.585Z,1011.12
2018-11-01T10:07:15.204Z,1011.11
2018-11-01T10:08:14.855Z,1011.07
2018-11-01T10:09:15.590Z,1011.04
2018-11-01T10:10:36.486Z,1010.98
2018-11-01T10:11:37.199Z,1010.94
2018-11-01T10:12:36.753Z,1010.95
2018-11-01T10:13:37.473Z,1010.95
2018-11-01T10:14:38.284Z,1010.92
2018-11-01T10:15:37.543Z,1010.97
2018-11-01T10:16:36.328Z,1010.98
2018-11-01T10:17:37.188Z,1010.96
2018-11-01T10:18:58.540Z,1011.01
2018-11-01T10:19:58.841Z,1010.99
2018-11-01T10:20:59.717Z,1010.99
2018-11-01T10:21:59.415Z,1010.99
2018-11-01T10:22:59.022Z,1010.96
2018-11-01T10:23:58.792Z,1010.91
2018-11-01T10:24:59.367Z,1010.90
2018-11-01T10:25:58.602Z,1010.91
2018-11-01T10:26:59.216Z,1010.94
2018-11-01T10:27:59.157Z,1010.93
2018-11-01T10:28:58.691Z,1010.89
2018-11-01T10:29:59.336Z,1010.89
2018-11-01T10:30:58.877Z,1010.86
2018-11-01T10:31:59.459Z,1010.86
2018-11-01T10:32:58.992Z,1010.83
2018-11-01T10:33:58.558Z,1010.83
2018-11-01T10:34:59.244Z,1010.79
2018-11-01T10:35:59.039Z,1010.79
2018-11-01T10:36:58.602Z,1010.79
2018-11-01T10:37:58.986Z,1010.78
2018-11-01T10:38:59.345Z,1010.76
2018-11-01T10:39:58.809Z,1010.72
2018-11-01T10:40:58.586Z,1010.77
2018-11-01T10:41:59.205Z,1010.66
2018-11-01T10:42:58.970Z,1010.83
2018-11-01T10:43:59.468Z,1010.86
2018-11-01T10:44:58.899Z,1010.86
2018-11-01T10:45:59.459Z,1010.89
2018-11-01T10:47:20.554Z,1010.93
2018-11-01T10:48:20.981Z,1010.95
2018-11-01T10:49:42.478Z,1010.98
2018-11-01T10:50:42.987Z,1010.97
2018-11-01T10:51:43.403Z,1011.01
2018-11-01T10:52:42.880Z,1010.96
2018-11-01T10:53:43.328Z,1010.93
2018-11-01T10:54:42.798Z,1010.94
2018-11-01T10:55:43.402Z,1010.91
2018-11-01T10:57:06.248Z,1010.89
2018-11-01T10:58:06.894Z,1010.90
2018-11-01T10:59:06.377Z,1010.90
2018-11-01T11:00:07.384Z,1010.89
2018-11-01T11:01:07.192Z,1010.92
2018-11-01T11:02:06.939Z,1010.87
2018-11-01T11:03:06.203Z,1010.87
2018-11-01T11:04:06.638Z,1010.87
2018-11-01T11:05:06.161Z,1010.83
2018-11-01T11:06:06.767Z,1010.82
2018-11-01T11:07:07.168Z,1010.76
2018-11-01T11:08:06.860Z,1010.80
2018-11-01T11:09:06.384Z,1010.74
2018-11-01T11:10:07.166Z,1010.71
2018-11-01T11:11:06.509Z,1010.70
2018-11-01T11:12:07.107Z,1010.70
2018-11-01T11:13:06.459Z,1010.66
2018-11-01T11:14:06.814Z,1010.65
2018-11-01T11:15:06.359Z,1010.66
2018-11-01T11:16:06.815Z,1010.67
2018-11-01T11:17:27.418Z,1010.66
2018-11-01T11:18:27.909Z,1010.65
2018-11-01T11:19:27.433Z,1010.69
2018-11-01T11:20:27.948Z,1010.63
2018-11-01T11:21:27.799Z,1010.62
2018-11-01T11:22:28.254Z,1010.56
2018-11-01T11:23:27.942Z,1010.56
2018-11-01T11:24:28.360Z,1010.53
2018-11-01T11:25:27.805Z,1010.54
2018-11-01T11:26:28.415Z,1010.55
2018-11-01T11:27:27.669Z,1010.57
2018-11-01T11:28:28.096Z,1010.58
2018-11-01T11:29:27.775Z,1010.57
2018-11-01T11:30:28.268Z,1010.60
2018-11-01T11:31:28.001Z,1010.62
2018-11-01T11:32:27.703Z,1010.60
2018-11-01T11:33:28.249Z,1010.63
2018-11-01T11:34:27.508Z,1010.65
2018-11-01T11:35:27.802Z,1010.67
2018-11-01T11:36:30.492Z,1010.69
2018-11-01T11:37:28.736Z,1010.68
2018-11-01T11:38:28.158Z,1010.66
2018-11-01T11:39:29.493Z,1010.68
2018-11-01T11:40:28.105Z,1010.63
2018-11-01T11:42:10.976Z,1010.54
2018-11-01T11:43:11.653Z,1010.48
2018-11-01T11:44:11.102Z,1010.44
2018-11-01T11:45:10.848Z,1010.46
2018-11-01T11:46:11.484Z,1010.25
2018-11-01T11:47:10.787Z,1010.45
2018-11-01T11:48:32.911Z,1010.38
2018-11-01T11:49:33.360Z,1010.40
2018-11-01T11:50:33.076Z,1010.36
2018-11-01T11:51:32.921Z,1010.36
2018-11-01T11:52:33.932Z,1010.36
2018-11-01T11:53:33.450Z,1010.32
2018-11-01T11:54:54.472Z,1010.35
2018-11-01T11:55:54.700Z,1010.36
2018-11-01T11:56:55.152Z,1010.40
2018-11-01T11:57:57.267Z,1010.40
2018-11-01T11:58:54.864Z,1010.42
2018-11-01T11:59:54.420Z,1010.40
2018-11-01T12:00:57.081Z,1010.40
2018-11-01T12:01:54.339Z,1010.36
2018-11-01T12:02:54.500Z,1010.31
2018-11-01T12:03:54.833Z,1010.37
2018-11-01T12:04:54.234Z,1010.35
2018-11-01T12:05:54.762Z,1010.32
2018-11-01T12:06:55.269Z,1010.34
2018-11-01T12:07:54.664Z,1010.33
2018-11-01T12:08:55.011Z,1010.32
2018-11-01T12:09:54.446Z,1010.29
2018-11-01T12:10:54.878Z,1010.27
2018-11-01T12:11:54.478Z,1010.25
2018-11-01T12:12:54.952Z,1010.24
2018-11-01T12:14:39.031Z,1010.19
2018-11-01T12:15:38.725Z,1010.18
2018-11-01T12:16:38.235Z,1010.19
2018-11-01T12:18:21.549Z,1010.15
2018-11-01T12:19:22.154Z,1010.12
2018-11-01T12:20:21.615Z,1010.10
2018-11-01T12:21:22.277Z,1010.09
2018-11-01T12:22:21.867Z,1010.07
2018-11-01T12:23:22.375Z,1010.10
2018-11-01T12:24:21.944Z,1010.07
2018-11-01T12:25:21.509Z,1010.07
2018-11-01T12:26:22.096Z,1010.08
2018-11-01T12:27:21.851Z,1010.04
2018-11-01T12:28:42.796Z,1010.06
2018-11-01T12:29:43.932Z,1010.06
2018-11-01T12:31:04.767Z,1010.03
2018-11-01T12:32:05.340Z,1009.99
2018-11-01T12:33:04.996Z,1010.02
2018-11-01T12:34:04.613Z,1009.99
2018-11-01T12:35:05.497Z,1009.99
2018-11-01T12:36:05.084Z,1009.94
2018-11-01T12:37:05.766Z,1009.93
2018-11-01T12:38:05.447Z,1009.83
2018-11-01T12:39:05.059Z,1009.78
2018-11-01T12:40:05.617Z,1009.78
2018-11-01T12:41:05.055Z,1009.70
2018-11-01T12:42:04.747Z,1009.67
2018-11-01T12:43:05.506Z,1009.65
2018-11-01T12:44:05.230Z,1009.62
2018-11-01T12:45:26.208Z,1009.61
2018-11-01T12:46:26.893Z,1009.62
2018-11-01T12:47:26.361Z,1009.60